sensor_id;sensor_type;location;lat;lon;timestamp;temperature;humidity
7206;DHT22;3644;53.480;10.004;2023-08-31T00:01:40;17.00;99.90
7206;DHT22;3644;53.480;10.004;2023-08-31T00:04:06;16.90;99.90
7206;DHT22;3644;53.480;10.004;2023-08-31T00:06:36;16.80;99.90
7206;DHT22;3644;53.480;10.004;2023-08-31T00:09:01;16.60;99.90
7206;DHT22;3644;53.480;10.004;2023-08-31T00:11:30;16.70;99.90
7206;DHT22;3644;53.480;10.004;2023-08-31T00:13:55;16.70;99.90
7206;DHT22;3644;53.480;10.004;2023-08-31T00:16:24;16.50;99.90
7206;DHT22;3644;53.480;10.004;2023-08-31T00:18:51;16.80;99.90
7206;DHT22;3644;53.480;10.004;2023-08-31T00:21:16;16.70;99.90
7206;DHT22;3644;53.480;10.004;2023-08-31T00:23:42;16.70;99.90
7206;DHT22;3644;53.480;10.004;2023-08-31T00:26:07;16.80;99.90
7206;DHT22;3644;53.480;10.004;2023-08-31T00:28:34;16.90;99.90
7206;DHT22;3644;53.480;10.004;2023-08-31T00:31:03;16.90;99.90
7206;DHT22;3644;53.480;10.004;2023-08-31T00:33:29;17.00;99.90
7206;DHT22;3644;53.480;10.004;2023-08-31T00:35:54;17.00;99.90
7206;DHT22;3644;53.480;10.004;2023-08-31T00:38:21;17.00;99.90
7206;DHT22;3644;53.480;10.004;2023-08-31T00:40:47;17.10;99.90
7206;DHT22;3644;53.480;10.004;2023-08-31T00:43:15;16.90;99.90
7206;DHT22;3644;53.480;10.004;2023-08-31T00:45:41;16.90;99.90
7206;DHT22;3644;53.480;10.004;2023-08-31T00:48:07;16.90;99.90
7206;DHT22;3644;53.480;10.004;2023-08-31T00:50:34;16.70;99.90
7206;DHT22;3644;53.480;10.004;2023-08-31T00:52:59;16.60;99.90
7206;DHT22;3644;53.480;10.004;2023-08-31T00:55:25;16.60;99.90
7206;DHT22;3644;53.480;10.004;2023-08-31T00:57:51;16.60;99.90
7206;DHT22;3644;53.480;10.004;2023-08-31T01:00:16;16.60;99.90
7206;DHT22;3644;53.480;10.004;2023-08-31T01:02:50;16.40;99.90
7206;DHT22;3644;53.480;10.004;2023-08-31T01:08:33;16.30;99.90
7206;DHT22;3644;53.480;10.004;2023-08-31T01:11:29;16.30;99.90
7206;DHT22;3644;53.480;10.004;2023-08-31T01:14:16;16.40;99.90
7206;DHT22;3644;53.480;10.004;2023-08-31T01:16:46;16.30;99.90
7206;DHT22;3644;53.480;10.004;2023-08-31T01:19:45;16.30;99.90
7206;DHT22;3644;53.480;10.004;2023-08-31T01:22:14;16.40;99.90
7206;DHT22;3644;53.480;10.004;2023-08-31T01:24:43;16.40;99.90
7206;DHT22;3644;53.480;10.004;2023-08-31T01:27:09;16.20;99.90
7206;DHT22;3644;53.480;10.004;2023-08-31T01:29:35;16.30;99.90
7206;DHT22;3644;53.480;10.004;2023-08-31T01:32:04;16.40;99.90
7206;DHT22;3644;53.480;10.004;2023-08-31T01:34:30;16.30;99.90
7206;DHT22;3644;53.480;10.004;2023-08-31T01:36:58;16.30;99.90
7206;DHT22;3644;53.480;10.004;2023-08-31T01:39:49;16.30;99.90
7206;DHT22;3644;53.480;10.004;2023-08-31T01:42:17;16.40;99.90
7206;DHT22;3644;53.480;10.004;2023-08-31T01:44:45;16.40;99.90
7206;DHT22;3644;53.480;10.004;2023-08-31T01:47:15;16.40;99.90
7206;DHT22;3644;53.480;10.004;2023-08-31T01:49:41;16.30;99.90
7206;DHT22;3644;53.480;10.004;2023-08-31T01:52:08;16.30;99.90
7206;DHT22;3644;53.480;10.004;2023-08-31T01:54:34;16.20;99.90
7206;DHT22;3644;53.480;10.004;2023-08-31T01:57:00;16.10;99.90
7206;DHT22;3644;53.480;10.004;2023-08-31T01:59:25;16.20;99.90
7206;DHT22;3644;53.480;10.004;2023-08-31T02:01:52;16.20;99.90
7206;DHT22;3644;53.480;10.004;2023-08-31T02:04:18;16.10;99.90
7206;DHT22;3644;53.480;10.004;2023-08-31T02:06:43;16.00;99.90
7206;DHT22;3644;53.480;10.004;2023-08-31T02:09:09;16.00;99.90
7206;DHT22;3644;53.480;10.004;2023-08-31T02:11:34;16.10;99.90
7206;DHT22;3644;53.480;10.004;2023-08-31T02:14:04;15.80;99.90
7206;DHT22;3644;53.480;10.004;2023-08-31T02:16:30;15.90;99.90
7206;DHT22;3644;53.480;10.004;2023-08-31T02:18:55;15.80;99.90
7206;DHT22;3644;53.480;10.004;2023-08-31T02:21:21;15.90;99.90
7206;DHT22;3644;53.480;10.004;2023-08-31T02:23:46;16.10;99.90
7206;DHT22;3644;53.480;10.004;2023-08-31T02:26:12;15.80;99.90
7206;DHT22;3644;53.480;10.004;2023-08-31T02:28:37;15.90;99.90
7206;DHT22;3644;53.480;10.004;2023-08-31T02:31:03;15.80;99.90
7206;DHT22;3644;53.480;10.004;2023-08-31T02:33:28;15.90;99.90
7206;DHT22;3644;53.480;10.004;2023-08-31T02:35:54;15.90;99.90
7206;DHT22;3644;53.480;10.004;2023-08-31T02:38:21;15.70;99.90
7206;DHT22;3644;53.480;10.004;2023-08-31T02:40:46;15.80;99.90
7206;DHT22;3644;53.480;10.004;2023-08-31T02:43:13;15.80;99.90
7206;DHT22;3644;53.480;10.004;2023-08-31T02:45:38;15.90;99.90
7206;DHT22;3644;53.480;10.004;2023-08-31T02:48:06;15.90;99.90
7206;DHT22;3644;53.480;10.004;2023-08-31T02:50:32;15.90;99.90
7206;DHT22;3644;53.480;10.004;2023-08-31T02:52:57;15.90;99.90
7206;DHT22;3644;53.480;10.004;2023-08-31T02:55:23;15.90;99.90
7206;DHT22;3644;53.480;10.004;2023-08-31T02:57:48;15.90;99.90
7206;DHT22;3644;53.480;10.004;2023-08-31T03:00:14;15.90;99.90
7206;DHT22;3644;53.480;10.004;2023-08-31T03:02:40;15.90;99.90
7206;DHT22;3644;53.480;10.004;2023-08-31T03:05:06;15.80;99.90
7206;DHT22;3644;53.480;10.004;2023-08-31T03:07:32;15.90;99.90
7206;DHT22;3644;53.480;10.004;2023-08-31T03:09:57;15.90;99.90
7206;DHT22;3644;53.480;10.004;2023-08-31T03:12:23;15.80;99.90
7206;DHT22;3644;53.480;10.004;2023-08-31T03:14:48;15.60;99.90
7206;DHT22;3644;53.480;10.004;2023-08-31T03:17:14;15.60;99.90
7206;DHT22;3644;53.480;10.004;2023-08-31T03:19:39;15.50;99.90
7206;DHT22;3644;53.480;10.004;2023-08-31T03:22:05;15.20;99.90
7206;DHT22;3644;53.480;10.004;2023-08-31T03:24:32;15.30;99.90
7206;DHT22;3644;53.480;10.004;2023-08-31T03:26:58;15.30;99.90
7206;DHT22;3644;53.480;10.004;2023-08-31T03:29:23;15.20;99.90
7206;DHT22;3644;53.480;10.004;2023-08-31T03:31:49;15.00;99.90
7206;DHT22;3644;53.480;10.004;2023-08-31T03:34:14;15.00;99.90
7206;DHT22;3644;53.480;10.004;2023-08-31T03:36:40;15.20;99.90
7206;DHT22;3644;53.480;10.004;2023-08-31T03:39:06;15.20;99.90
7206;DHT22;3644;53.480;10.004;2023-08-31T03:41:32;15.30;99.90
7206;DHT22;3644;53.480;10.004;2023-08-31T03:43:57;15.10;99.90
7206;DHT22;3644;53.480;10.004;2023-08-31T03:46:23;15.20;99.90
7206;DHT22;3644;53.480;10.004;2023-08-31T03:48:49;15.10;99.90
7206;DHT22;3644;53.480;10.004;2023-08-31T03:51:15;15.10;99.90
7206;DHT22;3644;53.480;10.004;2023-08-31T03:53:40;15.00;99.90
7206;DHT22;3644;53.480;10.004;2023-08-31T03:56:06;14.90;99.90
7206;DHT22;3644;53.480;10.004;2023-08-31T03:58:31;15.00;99.90
7206;DHT22;3644;53.480;10.004;2023-08-31T04:00:57;15.20;99.90
7206;DHT22;3644;53.480;10.004;2023-08-31T04:03:23;15.00;99.90
7206;DHT22;3644;53.480;10.004;2023-08-31T04:05:53;15.00;99.90
7206;DHT22;3644;53.480;10.004;2023-08-31T04:08:19;15.10;99.90
7206;DHT22;3644;53.480;10.004;2023-08-31T04:10:45;15.10;99.90
7206;DHT22;3644;53.480;10.004;2023-08-31T04:13:10;15.10;99.90
7206;DHT22;3644;53.480;10.004;2023-08-31T04:15:36;15.00;99.90
7206;DHT22;3644;53.480;10.004;2023-08-31T04:18:01;15.20;99.90
7206;DHT22;3644;53.480;10.004;2023-08-31T04:20:27;15.10;99.90
7206;DHT22;3644;53.480;10.004;2023-08-31T04:22:53;15.00;99.90
7206;DHT22;3644;53.480;10.004;2023-08-31T04:25:18;15.10;99.90
7206;DHT22;3644;53.480;10.004;2023-08-31T04:27:44;15.00;99.90
7206;DHT22;3644;53.480;10.004;2023-08-31T04:30:11;15.00;99.90
7206;DHT22;3644;53.480;10.004;2023-08-31T04:32:37;15.10;99.90
7206;DHT22;3644;53.480;10.004;2023-08-31T04:35:03;15.10;99.90
7206;DHT22;3644;53.480;10.004;2023-08-31T04:37:31;15.10;99.90
7206;DHT22;3644;53.480;10.004;2023-08-31T04:39:57;15.00;99.90
7206;DHT22;3644;53.480;10.004;2023-08-31T04:42:23;15.00;99.90
7206;DHT22;3644;53.480;10.004;2023-08-31T04:44:49;15.00;99.90
7206;DHT22;3644;53.480;10.004;2023-08-31T04:47:15;15.00;99.90
7206;DHT22;3644;53.480;10.004;2023-08-31T04:49:40;15.00;99.90
7206;DHT22;3644;53.480;10.004;2023-08-31T04:52:05;15.00;99.90
7206;DHT22;3644;53.480;10.004;2023-08-31T04:54:31;14.90;99.90
7206;DHT22;3644;53.480;10.004;2023-08-31T04:56:56;15.00;99.90
7206;DHT22;3644;53.480;10.004;2023-08-31T04:59:22;14.90;99.90
7206;DHT22;3644;53.480;10.004;2023-08-31T05:01:47;14.90;99.90
7206;DHT22;3644;53.480;10.004;2023-08-31T05:04:13;15.10;99.90
7206;DHT22;3644;53.480;10.004;2023-08-31T05:06:38;15.10;99.90
7206;DHT22;3644;53.480;10.004;2023-08-31T05:09:04;15.00;99.90
7206;DHT22;3644;53.480;10.004;2023-08-31T05:11:31;15.00;99.90
7206;DHT22;3644;53.480;10.004;2023-08-31T05:13:56;15.10;99.90
7206;DHT22;3644;53.480;10.004;2023-08-31T05:16:22;15.10;99.90
7206;DHT22;3644;53.480;10.004;2023-08-31T05:18:48;15.10;99.90
7206;DHT22;3644;53.480;10.004;2023-08-31T05:21:14;15.10;99.90
7206;DHT22;3644;53.480;10.004;2023-08-31T05:23:40;15.20;99.90
7206;DHT22;3644;53.480;10.004;2023-08-31T05:26:05;15.00;99.90
7206;DHT22;3644;53.480;10.004;2023-08-31T05:28:31;14.90;99.90
7206;DHT22;3644;53.480;10.004;2023-08-31T05:30:57;14.90;99.90
7206;DHT22;3644;53.480;10.004;2023-08-31T05:33:23;15.00;99.90
7206;DHT22;3644;53.480;10.004;2023-08-31T05:35:51;15.00;99.90
7206;DHT22;3644;53.480;10.004;2023-08-31T05:38:16;15.10;99.90
7206;DHT22;3644;53.480;10.004;2023-08-31T05:40:42;15.10;99.90
7206;DHT22;3644;53.480;10.004;2023-08-31T05:43:11;15.20;99.90
7206;DHT22;3644;53.480;10.004;2023-08-31T05:45:36;15.20;99.90
7206;DHT22;3644;53.480;10.004;2023-08-31T05:48:02;15.30;99.90
7206;DHT22;3644;53.480;10.004;2023-08-31T05:50:28;15.30;99.90
7206;DHT22;3644;53.480;10.004;2023-08-31T05:52:54;15.30;99.90
7206;DHT22;3644;53.480;10.004;2023-08-31T05:55:20;15.30;99.90
7206;DHT22;3644;53.480;10.004;2023-08-31T05:57:45;15.30;99.90
7206;DHT22;3644;53.480;10.004;2023-08-31T06:00:11;15.40;99.90
7206;DHT22;3644;53.480;10.004;2023-08-31T06:02:37;15.40;99.90
7206;DHT22;3644;53.480;10.004;2023-08-31T06:05:03;15.40;99.90
7206;DHT22;3644;53.480;10.004;2023-08-31T06:07:29;15.50;99.90
7206;DHT22;3644;53.480;10.004;2023-08-31T06:09:56;15.40;99.90
7206;DHT22;3644;53.480;10.004;2023-08-31T06:12:21;15.40;99.90
7206;DHT22;3644;53.480;10.004;2023-08-31T06:14:47;15.40;99.90
7206;DHT22;3644;53.480;10.004;2023-08-31T06:17:12;15.60;99.90
7206;DHT22;3644;53.480;10.004;2023-08-31T06:19:39;15.70;99.90
7206;DHT22;3644;53.480;10.004;2023-08-31T06:22:04;15.80;99.90
7206;DHT22;3644;53.480;10.004;2023-08-31T06:24:30;15.80;99.90
7206;DHT22;3644;53.480;10.004;2023-08-31T06:26:55;15.70;99.90
7206;DHT22;3644;53.480;10.004;2023-08-31T06:29:22;15.60;99.90
7206;DHT22;3644;53.480;10.004;2023-08-31T06:31:47;15.50;99.90
7206;DHT22;3644;53.480;10.004;2023-08-31T06:34:13;15.70;99.90
7206;DHT22;3644;53.480;10.004;2023-08-31T06:36:38;15.70;99.90
7206;DHT22;3644;53.480;10.004;2023-08-31T06:39:05;15.70;99.90
7206;DHT22;3644;53.480;10.004;2023-08-31T06:41:30;15.60;99.90
7206;DHT22;3644;53.480;10.004;2023-08-31T06:43:56;15.70;99.90
7206;DHT22;3644;53.480;10.004;2023-08-31T06:46:22;15.90;99.90
7206;DHT22;3644;53.480;10.004;2023-08-31T06:48:47;15.80;99.90
7206;DHT22;3644;53.480;10.004;2023-08-31T06:51:14;15.80;99.90
7206;DHT22;3644;53.480;10.004;2023-08-31T06:53:41;15.90;99.90
7206;DHT22;3644;53.480;10.004;2023-08-31T06:56:07;16.00;99.90
7206;DHT22;3644;53.480;10.004;2023-08-31T06:58:32;15.80;99.90
7206;DHT22;3644;53.480;10.004;2023-08-31T07:00:58;16.00;99.90
7206;DHT22;3644;53.480;10.004;2023-08-31T07:03:23;16.00;99.90
7206;DHT22;3644;53.480;10.004;2023-08-31T07:05:49;15.90;99.90
7206;DHT22;3644;53.480;10.004;2023-08-31T07:08:14;16.00;99.90
7206;DHT22;3644;53.480;10.004;2023-08-31T07:10:40;16.00;99.90
7206;DHT22;3644;53.480;10.004;2023-08-31T07:13:05;16.00;99.90
7206;DHT22;3644;53.480;10.004;2023-08-31T07:15:32;15.90;99.90
7206;DHT22;3644;53.480;10.004;2023-08-31T07:17:57;16.10;99.90
7206;DHT22;3644;53.480;10.004;2023-08-31T07:20:23;16.20;99.90
7206;DHT22;3644;53.480;10.004;2023-08-31T07:22:48;16.30;99.90
7206;DHT22;3644;53.480;10.004;2023-08-31T07:25:14;16.10;99.90
7206;DHT22;3644;53.480;10.004;2023-08-31T07:27:40;16.20;99.90
7206;DHT22;3644;53.480;10.004;2023-08-31T07:30:06;15.90;99.90
7206;DHT22;3644;53.480;10.004;2023-08-31T07:32:32;15.90;99.90
7206;DHT22;3644;53.480;10.004;2023-08-31T07:34:57;16.00;99.90
7206;DHT22;3644;53.480;10.004;2023-08-31T07:37:23;16.20;99.90
7206;DHT22;3644;53.480;10.004;2023-08-31T07:39:48;16.40;99.90
7206;DHT22;3644;53.480;10.004;2023-08-31T07:42:14;16.50;99.90
7206;DHT22;3644;53.480;10.004;2023-08-31T07:44:39;16.70;99.90
7206;DHT22;3644;53.480;10.004;2023-08-31T07:47:07;16.80;99.90
7206;DHT22;3644;53.480;10.004;2023-08-31T07:49:32;16.90;99.90
7206;DHT22;3644;53.480;10.004;2023-08-31T07:51:58;16.80;99.90
7206;DHT22;3644;53.480;10.004;2023-08-31T07:54:24;16.90;99.90
7206;DHT22;3644;53.480;10.004;2023-08-31T07:56:50;17.10;99.90
7206;DHT22;3644;53.480;10.004;2023-08-31T07:59:16;17.10;99.90
7206;DHT22;3644;53.480;10.004;2023-08-31T08:01:42;17.10;99.90
7206;DHT22;3644;53.480;10.004;2023-08-31T08:04:08;17.30;99.90
7206;DHT22;3644;53.480;10.004;2023-08-31T08:06:34;17.20;99.90
7206;DHT22;3644;53.480;10.004;2023-08-31T08:08:59;17.30;99.90
7206;DHT22;3644;53.480;10.004;2023-08-31T08:11:25;17.50;99.90
7206;DHT22;3644;53.480;10.004;2023-08-31T08:13:50;17.30;99.90
7206;DHT22;3644;53.480;10.004;2023-08-31T08:16:16;17.50;99.90
7206;DHT22;3644;53.480;10.004;2023-08-31T08:18:41;17.40;99.90
7206;DHT22;3644;53.480;10.004;2023-08-31T08:21:07;17.00;99.90
7206;DHT22;3644;53.480;10.004;2023-08-31T08:23:32;17.00;99.90
7206;DHT22;3644;53.480;10.004;2023-08-31T08:25:58;17.10;99.90
7206;DHT22;3644;53.480;10.004;2023-08-31T08:28:26;17.40;99.90
7206;DHT22;3644;53.480;10.004;2023-08-31T08:30:52;17.70;99.90
7206;DHT22;3644;53.480;10.004;2023-08-31T08:33:18;17.80;99.90
7206;DHT22;3644;53.480;10.004;2023-08-31T08:35:43;17.80;99.90
7206;DHT22;3644;53.480;10.004;2023-08-31T08:38:08;17.70;99.90
7206;DHT22;3644;53.480;10.004;2023-08-31T08:40:35;17.40;99.90
7206;DHT22;3644;53.480;10.004;2023-08-31T08:43:01;17.50;99.90
7206;DHT22;3644;53.480;10.004;2023-08-31T08:45:30;17.60;99.90
7206;DHT22;3644;53.480;10.004;2023-08-31T08:47:59;17.90;99.90
7206;DHT22;3644;53.480;10.004;2023-08-31T08:50:25;17.90;99.90
7206;DHT22;3644;53.480;10.004;2023-08-31T08:52:51;18.20;99.90
7206;DHT22;3644;53.480;10.004;2023-08-31T08:55:18;18.30;99.90
7206;DHT22;3644;53.480;10.004;2023-08-31T08:57:44;18.50;99.90
7206;DHT22;3644;53.480;10.004;2023-08-31T09:00:09;18.80;99.90
7206;DHT22;3644;53.480;10.004;2023-08-31T09:02:36;18.80;99.90
7206;DHT22;3644;53.480;10.004;2023-08-31T09:05:01;18.90;99.90
7206;DHT22;3644;53.480;10.004;2023-08-31T09:07:29;19.00;99.90
7206;DHT22;3644;53.480;10.004;2023-08-31T09:09:55;19.00;99.90
7206;DHT22;3644;53.480;10.004;2023-08-31T09:12:22;19.00;99.90
7206;DHT22;3644;53.480;10.004;2023-08-31T09:15:02;19.20;99.90
7206;DHT22;3644;53.480;10.004;2023-08-31T09:17:38;19.40;99.90
7206;DHT22;3644;53.480;10.004;2023-08-31T09:20:05;19.40;99.90
7206;DHT22;3644;53.480;10.004;2023-08-31T09:22:32;19.30;99.90
7206;DHT22;3644;53.480;10.004;2023-08-31T09:24:58;19.30;99.90
7206;DHT22;3644;53.480;10.004;2023-08-31T09:27:23;19.00;99.90
7206;DHT22;3644;53.480;10.004;2023-08-31T09:29:50;18.60;99.90
7206;DHT22;3644;53.480;10.004;2023-08-31T09:32:17;18.50;99.90
7206;DHT22;3644;53.480;10.004;2023-08-31T09:34:43;18.50;99.90
7206;DHT22;3644;53.480;10.004;2023-08-31T09:37:08;18.20;99.90
7206;DHT22;3644;53.480;10.004;2023-08-31T09:39:41;18.40;99.90
7206;DHT22;3644;53.480;10.004;2023-08-31T09:42:06;18.30;99.90
7206;DHT22;3644;53.480;10.004;2023-08-31T09:44:32;18.50;99.90
7206;DHT22;3644;53.480;10.004;2023-08-31T09:46:58;18.30;99.90
7206;DHT22;3644;53.480;10.004;2023-08-31T09:49:25;18.50;99.90
7206;DHT22;3644;53.480;10.004;2023-08-31T09:51:51;18.50;99.90
7206;DHT22;3644;53.480;10.004;2023-08-31T09:54:18;18.60;99.90
7206;DHT22;3644;53.480;10.004;2023-08-31T09:56:46;18.90;99.90
7206;DHT22;3644;53.480;10.004;2023-08-31T09:59:13;19.10;99.90
7206;DHT22;3644;53.480;10.004;2023-08-31T10:01:39;19.20;99.90
7206;DHT22;3644;53.480;10.004;2023-08-31T10:04:06;19.40;99.90
7206;DHT22;3644;53.480;10.004;2023-08-31T10:06:34;19.50;99.90
7206;DHT22;3644;53.480;10.004;2023-08-31T10:09:01;19.20;99.90
7206;DHT22;3644;53.480;10.004;2023-08-31T10:11:28;19.00;99.90
7206;DHT22;3644;53.480;10.004;2023-08-31T10:13:55;19.20;99.90
7206;DHT22;3644;53.480;10.004;2023-08-31T10:16:21;19.10;99.90
7206;DHT22;3644;53.480;10.004;2023-08-31T10:18:48;19.00;99.90
7206;DHT22;3644;53.480;10.004;2023-08-31T10:21:16;19.20;99.90
7206;DHT22;3644;53.480;10.004;2023-08-31T10:23:49;19.30;99.90
7206;DHT22;3644;53.480;10.004;2023-08-31T10:28:50;19.70;99.90
7206;DHT22;3644;53.480;10.004;2023-08-31T10:31:16;19.80;99.90
7206;DHT22;3644;53.480;10.004;2023-08-31T10:33:44;20.10;99.90
7206;DHT22;3644;53.480;10.004;2023-08-31T10:36:15;20.10;99.90
7206;DHT22;3644;53.480;10.004;2023-08-31T10:38:44;20.00;99.90
7206;DHT22;3644;53.480;10.004;2023-08-31T10:43:54;20.50;99.90
7206;DHT22;3644;53.480;10.004;2023-08-31T10:46:30;20.40;99.90
7206;DHT22;3644;53.480;10.004;2023-08-31T10:48:56;20.00;99.90
7206;DHT22;3644;53.480;10.004;2023-08-31T10:51:23;20.20;99.90
7206;DHT22;3644;53.480;10.004;2023-08-31T10:53:49;20.00;99.90
7206;DHT22;3644;53.480;10.004;2023-08-31T10:56:19;20.00;99.90
7206;DHT22;3644;53.480;10.004;2023-08-31T10:59:01;19.80;99.90
7206;DHT22;3644;53.480;10.004;2023-08-31T11:04:17;19.80;99.90
7206;DHT22;3644;53.480;10.004;2023-08-31T11:06:42;19.40;99.90
7206;DHT22;3644;53.480;10.004;2023-08-31T11:09:21;19.50;99.90
7206;DHT22;3644;53.480;10.004;2023-08-31T11:11:47;19.80;99.90
7206;DHT22;3644;53.480;10.004;2023-08-31T11:14:14;20.00;99.90
7206;DHT22;3644;53.480;10.004;2023-08-31T11:16:41;20.10;99.90
7206;DHT22;3644;53.480;10.004;2023-08-31T11:19:07;20.40;99.90
7206;DHT22;3644;53.480;10.004;2023-08-31T11:21:32;20.70;99.90
7206;DHT22;3644;53.480;10.004;2023-08-31T11:23:58;20.60;99.90
7206;DHT22;3644;53.480;10.004;2023-08-31T11:26:29;20.50;99.90
7206;DHT22;3644;53.480;10.004;2023-08-31T11:28:56;20.50;99.90
7206;DHT22;3644;53.480;10.004;2023-08-31T11:31:25;20.90;99.90
7206;DHT22;3644;53.480;10.004;2023-08-31T11:33:50;20.90;99.90
7206;DHT22;3644;53.480;10.004;2023-08-31T11:36:16;21.10;99.90
7206;DHT22;3644;53.480;10.004;2023-08-31T11:38:44;21.30;99.90
7206;DHT22;3644;53.480;10.004;2023-08-31T11:41:10;20.90;99.90
7206;DHT22;3644;53.480;10.004;2023-08-31T11:43:36;20.80;99.90
7206;DHT22;3644;53.480;10.004;2023-08-31T11:46:03;20.40;99.90
7206;DHT22;3644;53.480;10.004;2023-08-31T11:48:30;20.40;99.90
7206;DHT22;3644;53.480;10.004;2023-08-31T11:50:56;20.70;99.90
7206;DHT22;3644;53.480;10.004;2023-08-31T11:53:22;20.70;99.90
7206;DHT22;3644;53.480;10.004;2023-08-31T11:55:51;20.80;99.90
7206;DHT22;3644;53.480;10.004;2023-08-31T11:58:17;20.60;99.90
7206;DHT22;3644;53.480;10.004;2023-08-31T12:00:43;21.00;99.90
7206;DHT22;3644;53.480;10.004;2023-08-31T12:03:09;21.00;99.90
7206;DHT22;3644;53.480;10.004;2023-08-31T12:05:45;20.80;99.90
7206;DHT22;3644;53.480;10.004;2023-08-31T12:08:11;20.90;99.90
7206;DHT22;3644;53.480;10.004;2023-08-31T12:10:40;21.10;99.90
7206;DHT22;3644;53.480;10.004;2023-08-31T12:13:10;21.20;99.90
7206;DHT22;3644;53.480;10.004;2023-08-31T12:15:36;21.30;99.90
7206;DHT22;3644;53.480;10.004;2023-08-31T12:18:12;21.40;99.90
7206;DHT22;3644;53.480;10.004;2023-08-31T12:20:51;21.20;99.90
7206;DHT22;3644;53.480;10.004;2023-08-31T12:23:17;21.00;99.90
7206;DHT22;3644;53.480;10.004;2023-08-31T12:25:49;20.80;99.90
7206;DHT22;3644;53.480;10.004;2023-08-31T12:28:16;20.60;99.90
7206;DHT22;3644;53.480;10.004;2023-08-31T12:30:45;20.80;99.90
7206;DHT22;3644;53.480;10.004;2023-08-31T12:33:11;21.00;99.90
7206;DHT22;3644;53.480;10.004;2023-08-31T12:35:36;20.80;99.90
7206;DHT22;3644;53.480;10.004;2023-08-31T12:38:02;20.90;99.90
7206;DHT22;3644;53.480;10.004;2023-08-31T12:40:29;20.80;99.90
7206;DHT22;3644;53.480;10.004;2023-08-31T12:42:54;21.00;99.90
7206;DHT22;3644;53.480;10.004;2023-08-31T12:45:20;21.30;99.90
7206;DHT22;3644;53.480;10.004;2023-08-31T12:47:45;21.60;99.90
7206;DHT22;3644;53.480;10.004;2023-08-31T12:50:11;21.40;99.90
7206;DHT22;3644;53.480;10.004;2023-08-31T12:52:36;20.90;99.90
7206;DHT22;3644;53.480;10.004;2023-08-31T12:55:09;20.40;99.90
7206;DHT22;3644;53.480;10.004;2023-08-31T12:57:35;20.00;99.90
7206;DHT22;3644;53.480;10.004;2023-08-31T13:00:01;19.70;99.90
7206;DHT22;3644;53.480;10.004;2023-08-31T13:02:28;19.50;99.90
7206;DHT22;3644;53.480;10.004;2023-08-31T13:04:54;19.40;99.90
7206;DHT22;3644;53.480;10.004;2023-08-31T13:07:19;19.30;99.90
7206;DHT22;3644;53.480;10.004;2023-08-31T13:09:45;19.50;99.90
7206;DHT22;3644;53.480;10.004;2023-08-31T13:12:10;19.70;99.90
7206;DHT22;3644;53.480;10.004;2023-08-31T13:14:37;19.50;99.90
7206;DHT22;3644;53.480;10.004;2023-08-31T13:17:02;19.70;99.90
7206;DHT22;3644;53.480;10.004;2023-08-31T13:19:29;19.80;99.90
7206;DHT22;3644;53.480;10.004;2023-08-31T13:21:54;20.00;99.90
7206;DHT22;3644;53.480;10.004;2023-08-31T13:24:20;20.10;99.90
7206;DHT22;3644;53.480;10.004;2023-08-31T13:26:46;20.50;99.90
7206;DHT22;3644;53.480;10.004;2023-08-31T13:29:13;20.20;99.90
7206;DHT22;3644;53.480;10.004;2023-08-31T13:31:39;20.40;99.90
7206;DHT22;3644;53.480;10.004;2023-08-31T13:34:05;20.50;99.90
7206;DHT22;3644;53.480;10.004;2023-08-31T13:36:33;20.60;99.90
7206;DHT22;3644;53.480;10.004;2023-08-31T13:38:59;20.70;99.90
7206;DHT22;3644;53.480;10.004;2023-08-31T13:41:24;20.60;99.90
7206;DHT22;3644;53.480;10.004;2023-08-31T13:43:50;20.70;99.90
7206;DHT22;3644;53.480;10.004;2023-08-31T13:46:17;21.00;99.90
7206;DHT22;3644;53.480;10.004;2023-08-31T13:48:42;21.20;99.90
7206;DHT22;3644;53.480;10.004;2023-08-31T13:51:08;21.20;99.90
7206;DHT22;3644;53.480;10.004;2023-08-31T13:53:33;21.30;99.90
7206;DHT22;3644;53.480;10.004;2023-08-31T13:55:59;21.20;99.90
7206;DHT22;3644;53.480;10.004;2023-08-31T13:58:25;21.20;99.90
7206;DHT22;3644;53.480;10.004;2023-08-31T14:00:51;20.80;99.90
7206;DHT22;3644;53.480;10.004;2023-08-31T14:03:16;20.70;99.90
7206;DHT22;3644;53.480;10.004;2023-08-31T14:05:42;21.00;99.90
7206;DHT22;3644;53.480;10.004;2023-08-31T14:08:08;21.10;99.90
7206;DHT22;3644;53.480;10.004;2023-08-31T14:10:33;21.10;99.90
7206;DHT22;3644;53.480;10.004;2023-08-31T14:12:59;21.30;99.90
7206;DHT22;3644;53.480;10.004;2023-08-31T14:15:25;21.50;99.90
7206;DHT22;3644;53.480;10.004;2023-08-31T14:17:50;21.60;99.90
7206;DHT22;3644;53.480;10.004;2023-08-31T14:20:18;21.60;99.90
7206;DHT22;3644;53.480;10.004;2023-08-31T14:22:44;21.80;99.90
7206;DHT22;3644;53.480;10.004;2023-08-31T14:25:11;21.90;99.90
7206;DHT22;3644;53.480;10.004;2023-08-31T14:27:37;21.80;99.90
7206;DHT22;3644;53.480;10.004;2023-08-31T14:30:04;21.80;99.90
7206;DHT22;3644;53.480;10.004;2023-08-31T14:32:30;21.50;99.90
7206;DHT22;3644;53.480;10.004;2023-08-31T14:34:55;21.60;99.90
7206;DHT22;3644;53.480;10.004;2023-08-31T14:37:21;21.50;99.90
7206;DHT22;3644;53.480;10.004;2023-08-31T14:39:46;21.40;99.90
7206;DHT22;3644;53.480;10.004;2023-08-31T14:42:12;21.60;99.90
7206;DHT22;3644;53.480;10.004;2023-08-31T14:44:37;21.50;99.90
7206;DHT22;3644;53.480;10.004;2023-08-31T14:47:03;21.30;99.90
7206;DHT22;3644;53.480;10.004;2023-08-31T14:49:29;21.20;99.90
7206;DHT22;3644;53.480;10.004;2023-08-31T14:51:54;21.30;99.90
7206;DHT22;3644;53.480;10.004;2023-08-31T14:54:20;21.20;99.90
7206;DHT22;3644;53.480;10.004;2023-08-31T14:56:45;21.30;99.90
7206;DHT22;3644;53.480;10.004;2023-08-31T14:59:11;21.50;99.90
7206;DHT22;3644;53.480;10.004;2023-08-31T15:01:37;21.60;99.90
7206;DHT22;3644;53.480;10.004;2023-08-31T15:04:04;21.80;99.90
7206;DHT22;3644;53.480;10.004;2023-08-31T15:06:29;22.00;99.90
7206;DHT22;3644;53.480;10.004;2023-08-31T15:08:58;21.70;99.90
7206;DHT22;3644;53.480;10.004;2023-08-31T15:11:26;21.70;99.90
7206;DHT22;3644;53.480;10.004;2023-08-31T15:13:52;21.30;99.90
7206;DHT22;3644;53.480;10.004;2023-08-31T15:16:18;21.20;99.90
7206;DHT22;3644;53.480;10.004;2023-08-31T15:18:43;21.20;99.90
7206;DHT22;3644;53.480;10.004;2023-08-31T15:21:10;21.40;99.90
7206;DHT22;3644;53.480;10.004;2023-08-31T15:23:35;21.30;99.90
7206;DHT22;3644;53.480;10.004;2023-08-31T15:26:01;21.50;99.90
7206;DHT22;3644;53.480;10.004;2023-08-31T15:28:28;21.60;99.90
7206;DHT22;3644;53.480;10.004;2023-08-31T15:30:53;21.30;99.90
7206;DHT22;3644;53.480;10.004;2023-08-31T15:33:19;21.30;99.90
7206;DHT22;3644;53.480;10.004;2023-08-31T15:35:44;21.40;99.90
7206;DHT22;3644;53.480;10.004;2023-08-31T15:38:10;21.30;99.90
7206;DHT22;3644;53.480;10.004;2023-08-31T15:40:35;21.60;99.90
7206;DHT22;3644;53.480;10.004;2023-08-31T15:43:01;21.70;99.90
7206;DHT22;3644;53.480;10.004;2023-08-31T15:45:26;21.60;99.90
7206;DHT22;3644;53.480;10.004;2023-08-31T15:47:52;21.50;99.90
7206;DHT22;3644;53.480;10.004;2023-08-31T15:50:18;21.40;99.90
7206;DHT22;3644;53.480;10.004;2023-08-31T15:52:44;21.40;99.90